Time;durP1;ratioP1;P1;durP2;ratioP2;P2;SDS_P1;SDS_P2;PMS_P1;PMS_P2;Temp;Humidity;BMP_temperature;BMP_pressure;BME280_temperature;BME280_humidity;BME280_pressure;Samples;Min_cycle;Max_cycle;Signal;HPM_P1;HPM_P2
2021/09/10 00:01:29;;;;;;;9.60;5.20;;;;;;;18.04;75.13;100545.88;5076618;28;20174;-66
2021/09/10 00:03:55;;;;;;;9.77;5.80;;;;;;;18.00;75.96;100540.91;5076396;28;20199;-66
2021/09/10 00:06:20;;;;;;;10.67;5.33;;;;;;;17.99;75.72;100539.19;5094890;28;20181;-68
2021/09/10 00:08:45;;;;;;;8.50;5.07;;;;;;;17.98;75.79;100534.78;5094244;28;20190;-66
2021/09/10 00:11:11;;;;;;;8.13;5.03;;;;;;;17.91;76.07;100542.56;5076142;28;20209;-67
2021/09/10 00:13:36;;;;;;;8.13;5.73;;;;;;;17.84;76.17;100532.44;5076466;28;20173;-66
2021/09/10 00:16:01;;;;;;;7.37;5.40;;;;;;;17.80;76.23;100535.41;5094362;28;20689;-67
2021/09/10 00:18:27;;;;;;;9.20;5.50;;;;;;;17.79;76.47;100525.59;5094252;28;20206;-67
2021/09/10 00:20:52;;;;;;;9.20;5.17;;;;;;;17.88;75.47;100536.59;5076700;28;20235;-67
2021/09/10 00:23:17;;;;;;;11.73;5.30;;;;;;;17.93;75.60;100532.50;5081792;28;20686;-67
2021/09/10 00:25:43;;;;;;;8.77;5.50;;;;;;;17.94;75.17;100531.50;5096691;28;20178;-67
2021/09/10 00:28:08;;;;;;;6.90;5.37;;;;;;;17.96;74.89;100528.66;5094207;28;20189;-67
2021/09/10 00:30:33;;;;;;;9.00;5.60;;;;;;;17.95;75.25;100530.50;5094050;28;20174;-67
2021/09/10 00:32:59;;;;;;;10.10;5.10;;;;;;;17.94;75.44;100527.94;5094089;28;20513;-67
2021/09/10 00:35:24;;;;;;;7.40;5.33;;;;;;;17.95;75.23;100532.34;5093859;28;20172;-67
2021/09/10 00:37:49;;;;;;;11.77;5.97;;;;;;;17.94;75.26;100527.94;5075961;28;20699;-67
2021/09/10 00:40:14;;;;;;;18.50;6.00;;;;;;;17.85;75.86;100526.06;5075967;28;20544;-67
2021/09/10 00:42:40;;;;;;;7.47;5.80;;;;;;;17.79;76.37;100525.59;5093737;28;20243;-67
2021/09/10 00:45:06;;;;;;;10.50;5.60;;;;;;;17.76;75.81;100522.31;5075623;28;20170;-67
2021/09/10 00:47:31;;;;;;;8.53;5.43;;;;;;;17.66;76.64;100522.22;5093742;28;20265;-67
2021/09/10 00:49:57;;;;;;;9.33;5.90;;;;;;;17.64;76.60;100516.13;5094361;28;20262;-67
2021/09/10 00:52:22;;;;;;;14.57;5.87;;;;;;;17.57;76.78;100520.34;5075752;28;20253;-67
2021/09/10 00:54:48;;;;;;;7.37;5.27;;;;;;;17.54;76.90;100512.53;5075768;28;20174;-69
2021/09/10 00:57:14;;;;;;;11.27;5.47;;;;;;;17.49;77.30;100506.66;5093754;28;20166;-67
2021/09/10 00:59:40;;;;;;;11.60;6.03;;;;;;;17.46;77.27;100515.00;5093611;28;20182;-67
2021/09/10 01:02:05;;;;;;;15.40;6.20;;;;;;;17.42;77.62;100513.56;5093624;28;20539;-67
2021/09/10 01:04:30;;;;;;;9.30;5.50;;;;;;;17.39;78.18;100511.97;5075386;28;20198;-67
2021/09/10 01:06:56;;;;;;;8.40;6.13;;;;;;;17.38;77.97;100507.56;5058653;28;20185;-67
2021/09/10 01:09:22;;;;;;;7.17;5.40;;;;;;;17.41;78.12;100515.41;5093454;28;20193;-68
2021/09/10 01:11:47;;;;;;;7.60;5.70;;;;;;;17.30;78.82;100507.38;5093582;28;20257;-68
2021/09/10 01:14:15;;;;;;;9.70;6.20;;;;;;;17.22;79.16;100512.59;5075406;28;20212;-68
2021/09/10 01:16:40;;;;;;;9.47;5.30;;;;;;;17.12;80.07;100517.06;5093391;28;20211;-67
2021/09/10 01:19:05;;;;;;;8.77;5.83;;;;;;;16.99;80.52;100513.69;5075019;28;20205;-67
2021/09/10 01:21:31;;;;;;;7.43;5.63;;;;;;;16.95;80.63;100520.31;5075257;28;20712;-67
2021/09/10 01:23:56;;;;;;;8.70;5.90;;;;;;;16.90;80.44;100520.72;5075193;28;20186;-67
2021/09/10 01:26:21;;;;;;;8.93;5.70;;;;;;;16.86;80.58;100509.34;5075208;28;20198;-67
2021/09/10 01:28:48;;;;;;;8.73;6.17;;;;;;;16.83;81.58;100509.59;5093726;28;20224;-67
2021/09/10 01:31:13;;;;;;;7.07;5.47;;;;;;;16.78;81.45;100502.88;5075545;28;20177;-67
2021/09/10 01:33:39;;;;;;;10.73;5.80;;;;;;;16.75;81.91;100514.78;5074925;28;20540;-67
2021/09/10 01:36:04;;;;;;;8.20;6.17;;;;;;;16.72;81.78;100504.22;5093161;28;20166;-67
2021/09/10 01:38:29;;;;;;;10.93;6.20;;;;;;;16.54;84.25;100514.69;5093660;28;20197;-67
2021/09/10 01:40:55;;;;;;;7.47;5.40;;;;;;;16.43;85.27;100522.81;5075591;28;20170;-67
2021/09/10 01:43:20;;;;;;;11.63;5.70;;;;;;;16.40;84.89;100517.66;5093301;28;20328;-71
2021/09/10 01:45:46;;;;;;;6.80;6.10;;;;;;;16.45;83.96;100512.75;5093204;28;20177;-71
2021/09/10 01:48:11;;;;;;;12.23;6.13;;;;;;;16.52;83.03;100513.97;5092977;28;20198;-71
2021/09/10 01:50:36;;;;;;;10.00;6.67;;;;;;;16.68;82.44;100520.78;5058334;28;20593;-71
2021/09/10 01:53:02;;;;;;;9.50;5.77;;;;;;;16.70;81.93;100519.66;5093532;28;20162;-71
2021/09/10 01:55:30;;;;;;;8.37;5.57;;;;;;;16.67;81.98;100516.38;5075316;28;20181;-71
2021/09/10 01:57:55;;;;;;;6.70;5.40;;;;;;;16.67;82.48;100516.38;5095253;28;20198;-71
2021/09/10 02:00:20;;;;;;;8.70;5.93;;;;;;;16.75;81.94;100513.94;5079367;28;20648;-71
2021/09/10 02:02:46;;;;;;;9.07;6.53;;;;;;;16.77;82.06;100509.25;5097252;28;20193;-71
2021/09/10 02:05:12;;;;;;;7.77;5.63;;;;;;;16.83;81.69;100517.69;5079168;28;20265;-71
2021/09/10 02:07:38;;;;;;;11.67;5.93;;;;;;;16.81;81.75;100516.09;5097008;28;20170;-71
2021/09/10 02:10:05;;;;;;;13.63;6.23;;;;;;;16.82;81.73;100515.13;5097038;28;20528;-71
2021/09/10 02:12:30;;;;;;;8.17;6.00;;;;;;;16.89;81.24;100513.63;5097096;28;20182;-71
2021/09/10 02:14:56;;;;;;;9.53;6.00;;;;;;;16.82;81.47;100518.66;5096675;28;20174;-71
2021/09/10 02:17:21;;;;;;;6.57;5.50;;;;;;;16.86;81.45;100516.56;5096968;28;20170;-71
2021/09/10 02:19:46;;;;;;;12.13;6.60;;;;;;;16.86;81.56;100517.44;5096646;28;20205;-71
2021/09/10 02:22:12;;;;;;;8.30;6.47;;;;;;;16.81;81.32;100514.25;5096940;28;20212;-72
2021/09/10 02:24:37;;;;;;;7.30;6.03;;;;;;;16.80;81.93;100515.25;5097187;28;20217;-71
2021/09/10 02:27:03;;;;;;;9.23;6.77;;;;;;;16.77;81.63;100506.56;5096688;28;20171;-71
2021/09/10 02:29:28;;;;;;;10.73;6.60;;;;;;;16.82;81.93;100505.19;5097730;28;20193;-72
2021/09/10 02:31:53;;;;;;;14.33;6.40;;;;;;;16.78;81.63;100503.75;5097129;28;20174;-71
2021/09/10 02:34:19;;;;;;;10.70;6.77;;;;;;;16.74;82.08;100501.44;5078346;28;20166;-71
2021/09/10 02:36:44;;;;;;;9.13;7.00;;;;;;;16.75;81.76;100497.75;5096772;28;20539;-71
2021/09/10 02:39:11;;;;;;;9.40;6.10;;;;;;;16.70;82.49;100499.97;5078489;28;20559;-71
2021/09/10 02:41:37;;;;;;;13.47;6.17;;;;;;;16.73;82.41;100502.41;5078717;28;20175;-71
2021/09/10 02:44:03;;;;;;;11.43;6.60;;;;;;;16.74;82.54;100504.13;5096144;28;20186;-71
2021/09/10 02:46:28;;;;;;;9.57;5.90;;;;;;;16.79;81.97;100507.28;5096058;28;20177;-71
2021/09/10 02:48:53;;;;;;;9.20;6.70;;;;;;;16.77;82.27;100507.44;5096325;28;20193;-71
2021/09/10 02:51:19;;;;;;;9.20;6.73;;;;;;;16.77;82.19;100512.81;5096309;28;20170;-71
2021/09/10 02:53:44;;;;;;;9.73;6.37;;;;;;;16.76;82.26;100503.03;5096191;28;20196;-71
2021/09/10 02:56:09;;;;;;;8.50;6.80;;;;;;;16.73;82.48;100505.13;5096154;28;20635;-71
2021/09/10 02:58:35;;;;;;;7.13;6.00;;;;;;;16.64;82.77;100500.44;5078055;28;20197;-71
2021/09/10 03:01:00;;;;;;;9.33;6.60;;;;;;;16.57;83.17;100500.97;5078346;28;20174;-71
2021/09/10 03:03:29;;;;;;;8.43;5.90;;;;;;;16.51;83.76;100501.47;5078329;28;20190;-71
2021/09/10 03:05:55;;;;;;;9.27;6.20;;;;;;;16.45;84.03;100498.44;5078878;28;20551;-71
2021/09/10 03:08:21;;;;;;;8.57;6.37;;;;;;;16.40;84.48;100500.66;5095762;28;20223;-71
2021/09/10 03:10:46;;;;;;;10.37;6.67;;;;;;;16.35;85.42;100503.69;5077658;28;20170;-70
2021/09/10 03:13:11;;;;;;;11.03;6.90;;;;;;;16.40;85.11;100509.59;5096197;28;20648;-72
2021/09/10 03:15:36;;;;;;;11.37;7.03;;;;;;;16.36;84.88;100510.81;5096475;28;20174;-72
2021/09/10 03:18:02;;;;;;;12.67;7.07;;;;;;;16.35;84.94;100506.38;5096179;28;20202;-72
2021/09/10 03:20:27;;;;;;;15.73;7.20;;;;;;;16.33;85.09;100505.66;5096030;28;20162;-72
2021/09/10 03:22:53;;;;;;;10.07;6.67;;;;;;;16.27;85.48;100498.09;5077878;28;20196;-73
2021/09/10 03:25:18;;;;;;;11.60;6.57;;;;;;;16.28;85.71;100499.81;5078234;28;20178;-72
2021/09/10 03:27:43;;;;;;;8.60;6.80;;;;;;;16.30;86.17;100502.38;5077516;28;20178;-71
2021/09/10 03:30:10;;;;;;;10.93;7.00;;;;;;;16.31;85.78;100499.53;5095741;28;20167;-70
2021/09/10 03:32:35;;;;;;;11.30;6.93;;;;;;;16.38;85.77;100498.09;5095283;28;20174;-71
2021/09/10 03:35:00;;;;;;;8.23;6.97;;;;;;;16.38;85.49;100497.22;5095485;28;20253;-71
2021/09/10 03:37:26;;;;;;;11.07;6.27;;;;;;;16.37;85.72;100488.31;5095590;28;20202;-72
2021/09/10 03:39:51;;;;;;;8.93;7.10;;;;;;;16.42;85.52;100498.69;5095636;28;20201;-72
2021/09/10 03:42:16;;;;;;;18.37;6.83;;;;;;;16.40;85.23;100501.50;5099745;28;20178;-71
2021/09/10 03:44:42;;;;;;;10.20;6.43;;;;;;;16.41;85.52;100491.59;5079205;28;20686;-71
2021/09/10 03:47:07;;;;;;;9.93;6.43;;;;;;;16.40;85.47;100493.44;5096711;28;20170;-72
2021/09/10 03:49:33;;;;;;;7.67;6.40;;;;;;;16.35;85.89;100490.22;5095828;28;20201;-71
2021/09/10 03:51:59;;;;;;;9.17;6.77;;;;;;;16.37;85.85;100493.69;5096224;28;20174;-70
2021/09/10 03:54:24;;;;;;;6.97;6.27;;;;;;;16.36;86.24;100501.88;5095472;28;20201;-72
2021/09/10 03:56:49;;;;;;;10.47;6.80;;;;;;;16.32;86.27;100503.94;5095553;28;20217;-72
2021/09/10 03:59:15;;;;;;;7.40;6.47;;;;;;;16.33;86.26;100502.97;5095806;28;20230;-71
2021/09/10 04:01:41;;;;;;;8.73;7.63;;;;;;;16.33;86.26;100502.13;5096127;28;20593;-72
2021/09/10 04:04:06;;;;;;;12.77;7.67;;;;;;;16.28;87.20;100502.50;5077562;28;20190;-72
2021/09/10 04:06:31;;;;;;;10.07;6.77;;;;;;;16.27;86.93;100503.47;5096322;28;20170;-71
2021/09/10 04:08:57;;;;;;;8.27;7.43;;;;;;;16.33;86.54;100502.97;5095783;28;20197;-71
2021/09/10 04:11:22;;;;;;;13.13;7.10;;;;;;;16.35;86.09;100498.31;5077451;28;20171;-71
2021/09/10 04:13:47;;;;;;;13.50;7.50;;;;;;;16.31;87.00;100509.47;5095900;28;20628;-73
2021/09/10 04:16:13;;;;;;;12.47;7.63;;;;;;;16.33;87.17;100504.81;5078413;28;20170;-71
2021/09/10 04:18:38;;;;;;;11.03;7.87;;;;;;;16.27;87.21;100507.03;5094969;28;20552;-71
2021/09/10 04:21:03;;;;;;;8.50;6.90;;;;;;;16.18;87.36;100496.16;5094593;28;20170;-71
2021/09/10 04:23:28;;;;;;;8.40;7.13;;;;;;;16.11;87.57;100503.88;5077363;28;20190;-71
2021/09/10 04:25:54;;;;;;;8.33;6.90;;;;;;;16.01;87.91;100494.84;5094871;28;20174;-71
2021/09/10 04:28:19;;;;;;;11.33;7.13;;;;;;;15.95;88.73;100504.25;5095448;28;20201;-71
2021/09/10 04:30:44;;;;;;;10.80;7.80;;;;;;;15.92;89.29;100496.41;5094732;28;20636;-71
2021/09/10 04:33:10;;;;;;;12.17;7.50;;;;;;;15.93;89.66;100497.28;5095039;28;20166;-71
2021/09/10 04:35:35;;;;;;;13.20;8.47;;;;;;;15.91;89.98;100496.53;5094772;28;20177;-71
2021/09/10 04:38:00;;;;;;;8.83;7.43;;;;;;;15.89;89.44;100490.44;5094382;28;20220;-71
2021/09/10 04:40:25;;;;;;;9.20;7.23;;;;;;;15.88;89.42;100492.25;5094482;28;20177;-71
2021/09/10 04:42:51;;;;;;;12.50;8.53;;;;;;;15.90;89.76;100493.00;5075995;28;20660;-70
2021/09/10 04:45:16;;;;;;;11.67;8.27;;;;;;;15.99;89.94;100496.81;5076058;28;20170;-72
2021/09/10 04:47:41;;;;;;;11.53;7.70;;;;;;;16.05;88.89;100499.00;5075629;28;20179;-71
2021/09/10 04:50:07;;;;;;;14.57;7.77;;;;;;;16.05;89.26;100495.44;5093627;28;20178;-72
2021/09/10 04:52:33;;;;;;;9.43;7.37;;;;;;;16.07;88.59;100501.56;5075760;28;20206;-71
2021/09/10 04:54:58;;;;;;;11.70;7.70;;;;;;;16.04;88.93;100509.91;5059090;28;20182;-70
2021/09/10 04:57:24;;;;;;;12.23;8.57;;;;;;;16.05;89.93;100517.00;5076109;28;20171;-71
2021/09/10 04:59:49;;;;;;;13.63;8.07;;;;;;;16.12;89.62;100519.06;5075491;28;20190;-71
2021/09/10 05:02:14;;;;;;;12.00;7.97;;;;;;;16.22;89.17;100521.84;5093659;28;20181;-71
2021/09/10 05:04:40;;;;;;;12.20;7.87;;;;;;;16.32;88.50;100517.41;5058921;28;20202;-71
2021/09/10 05:07:05;;;;;;;14.40;8.03;;;;;;;16.34;88.52;100520.84;5077450;28;20177;-72
2021/09/10 05:09:30;;;;;;;9.67;7.67;;;;;;;16.36;88.63;100513.53;5077446;28;20672;-72
2021/09/10 05:11:56;;;;;;;9.20;7.13;;;;;;;16.36;88.40;100516.22;5094366;28;20183;-71
2021/09/10 05:14:21;;;;;;;17.17;8.77;;;;;;;16.31;89.21;100521.09;5094697;28;20166;-71
2021/09/10 05:16:46;;;;;;;11.13;7.67;;;;;;;16.28;89.23;100518.66;5094102;28;20174;-73
2021/09/10 05:19:15;;;;;;;9.73;7.80;;;;;;;16.33;89.47;100515.56;5108739;22;20241;-74
2021/09/10 05:21:40;;;;;;;12.00;8.90;;;;;;;16.29;89.88;100514.13;5038910;28;20321;-75
2021/09/10 05:24:05;;;;;;;14.67;8.80;;;;;;;16.25;90.41;100517.06;5038341;28;20674;-73
2021/09/10 05:26:32;;;;;;;12.10;8.77;;;;;;;16.17;91.83;100507.91;5055448;28;20651;-74
2021/09/10 05:28:57;;;;;;;16.53;8.93;;;;;;;16.22;93.62;100513.78;5055440;28;20275;-72
2021/09/10 05:31:22;;;;;;;12.63;8.33;;;;;;;16.11;92.99;100554.19;5055539;28;20224;-74
2021/09/10 05:33:48;;;;;;;13.00;8.43;;;;;;;16.33;92.43;100523.66;5058989;28;20167;-73
2021/09/10 05:36:13;;;;;;;15.13;8.67;;;;;;;16.22;96.90;100527.22;5079956;28;20549;-74
2021/09/10 05:38:38;;;;;;;11.90;8.97;;;;;;;16.44;93.89;100540.69;5059805;28;20210;-74
2021/09/10 05:41:03;;;;;;;12.77;8.60;;;;;;;16.24;94.16;100515.34;5059681;28;20174;-74
2021/09/10 05:43:29;;;;;;;17.40;9.40;;;;;;;16.18;94.84;100541.94;5042676;28;20349;-73
2021/09/10 05:45:54;;;;;;;11.73;8.90;;;;;;;16.44;93.86;100532.59;5059383;28;20185;-73
2021/09/10 05:48:19;;;;;;;12.90;8.93;;;;;;;16.31;95.90;100531.00;5067733;28;20203;-71
2021/09/10 05:50:46;;;;;;;17.80;9.77;;;;;;;16.23;96.48;100542.41;5068175;28;20540;-75
2021/09/10 05:53:11;;;;;;;13.80;9.47;;;;;;;16.18;95.53;100540.09;5049171;28;20179;-74
2021/09/10 05:55:36;;;;;;;12.07;8.80;;;;;;;16.37;94.66;100531.38;5066835;28;20175;-74
2021/09/10 05:58:02;;;;;;;12.80;8.73;;;;;;;16.46;94.83;100525.25;5084797;28;20183;-73
2021/09/10 06:00:27;;;;;;;14.00;9.27;;;;;;;16.42;94.47;100518.41;5067705;28;20208;-73
2021/09/10 06:02:52;;;;;;;13.73;9.00;;;;;;;16.51;93.60;100528.41;5048684;28;20191;-73
2021/09/10 06:05:18;;;;;;;13.37;9.37;;;;;;;16.46;92.49;100529.78;5059047;28;20543;-72
2021/09/10 06:07:43;;;;;;;22.10;9.83;;;;;;;16.53;93.17;100520.19;5076503;28;20175;-74
2021/09/10 06:10:09;;;;;;;14.60;9.00;;;;;;;16.51;93.23;100527.56;5058534;28;20244;-74
2021/09/10 06:12:34;;;;;;;14.70;9.53;;;;;;;16.44;92.74;100524.50;5058643;28;20221;-73
2021/09/10 06:14:59;;;;;;;16.57;9.80;;;;;;;16.58;91.99;100526.06;5058726;28;20170;-73
2021/09/10 06:17:25;;;;;;;12.53;8.90;;;;;;;16.78;90.40;100527.16;5059099;28;20167;-73
2021/09/10 06:19:50;;;;;;;15.60;9.37;;;;;;;16.95;90.16;100529.25;5076279;28;20203;-73
2021/09/10 06:22:15;;;;;;;18.43;11.67;;;;;;;17.01;89.13;100530.59;5059099;28;20178;-73
2021/09/10 06:24:41;;;;;;;13.63;9.07;;;;;;;17.07;88.96;100525.53;5058176;28;20672;-73
2021/09/10 06:27:06;;;;;;;13.30;9.23;;;;;;;17.21;88.36;100535.16;5058458;28;20167;-73
2021/09/10 06:29:31;;;;;;;12.03;9.40;;;;;;;17.19;88.03;100539.81;5057859;28;20195;-74
2021/09/10 06:31:57;;;;;;;14.37;8.87;;;;;;;17.20;88.28;100546.94;5041396;28;20174;-73
2021/09/10 06:34:23;;;;;;;11.13;8.37;;;;;;;17.48;87.80;100561.63;5076291;28;20163;-74
2021/09/10 06:36:49;;;;;;;20.17;9.70;;;;;;;17.56;87.33;100561.81;5058558;28;20167;-74
2021/09/10 06:39:17;;;;;;;18.50;10.00;;;;;;;17.80;86.75;100566.94;5057815;28;20191;-73
2021/09/10 06:41:43;;;;;;;13.90;8.80;;;;;;;17.91;86.66;100557.91;5041132;28;20171;-74
2021/09/10 06:44:09;;;;;;;19.60;9.27;;;;;;;17.93;86.83;100551.41;5057714;28;20277;-72
2021/09/10 06:46:34;;;;;;;14.63;9.63;;;;;;;17.81;86.56;100552.44;5041388;28;20174;-74
2021/09/10 06:49:01;;;;;;;16.23;9.27;;;;;;;18.02;87.07;100566.78;5041125;28;20248;-74
2021/09/10 06:51:27;;;;;;;17.50;9.80;;;;;;;18.06;86.47;100565.50;5057709;28;20706;-74
2021/09/10 06:53:52;;;;;;;12.03;9.70;;;;;;;18.39;86.31;100583.28;5041102;28;20175;-74
2021/09/10 06:56:17;;;;;;;12.00;8.47;;;;;;;18.52;84.99;100577.59;5041076;28;20220;-73
2021/09/10 06:58:44;;;;;;;15.27;10.37;;;;;;;18.06;86.92;100572.75;5057754;28;20222;-73
2021/09/10 07:01:09;;;;;;;12.70;9.80;;;;;;;18.48;85.10;100578.03;5058104;28;20171;-73
2021/09/10 07:03:35;;;;;;;13.47;9.90;;;;;;;18.67;84.02;100575.41;5075330;28;20183;-73
2021/09/10 07:06:00;;;;;;;12.20;10.63;;;;;;;18.64;84.52;100578.41;5057837;28;20193;-73
2021/09/10 07:08:25;;;;;;;15.27;10.07;;;;;;;18.42;83.75;100580.28;5057329;28;20187;-73
2021/09/10 07:10:51;;;;;;;13.33;10.03;;;;;;;18.72;83.50;100589.38;5040920;28;20175;-74
2021/09/10 07:13:16;;;;;;;15.57;10.50;;;;;;;18.80;83.52;100591.38;5041456;28;20206;-73
2021/09/10 07:15:41;;;;;;;14.37;9.80;;;;;;;18.88;83.87;100596.94;5057249;28;20167;-74
2021/09/10 07:18:07;;;;;;;15.13;11.10;;;;;;;19.05;82.90;100586.28;5057048;28;20664;-74
2021/09/10 07:20:32;;;;;;;13.40;10.20;;;;;;;19.12;82.77;100583.00;5057397;28;20167;-73
2021/09/10 07:22:57;;;;;;;13.50;9.63;;;;;;;19.43;81.71;100597.25;5057508;28;20209;-75
2021/09/10 07:25:23;;;;;;;12.33;9.53;;;;;;;19.67;81.36;100600.38;5075310;28;20191;-74
2021/09/10 07:27:48;;;;;;;10.40;9.30;;;;;;;20.19;80.24;100598.97;5040523;28;20203;-72
2021/09/10 07:30:13;;;;;;;13.00;9.73;;;;;;;20.06;78.61;100602.97;5057069;28;20190;-74
2021/09/10 07:32:39;;;;;;;12.77;10.13;;;;;;;20.04;78.88;100597.72;5040307;28;20174;-73
2021/09/10 07:35:04;;;;;;;11.53;9.63;;;;;;;19.98;79.76;100603.72;5056913;28;20171;-73
2021/09/10 07:37:32;;;;;;;18.30;10.17;;;;;;;19.95;80.23;100607.56;5057056;28;20178;-73
2021/09/10 07:39:58;;;;;;;12.23;10.13;;;;;;;19.83;81.71;100602.50;5057450;28;20187;-74
2021/09/10 07:42:23;;;;;;;13.13;9.73;;;;;;;20.20;80.07;100600.66;5075155;28;20198;-73
2021/09/10 07:44:49;;;;;;;13.83;10.23;;;;;;;20.30;79.68;100593.34;5056696;28;20203;-74
2021/09/10 07:47:15;;;;;;;15.97;9.17;;;;;;;20.18;80.53;100591.84;5040383;28;20203;-73
2021/09/10 07:49:40;;;;;;;13.80;9.93;;;;;;;20.28;80.12;100591.78;5056507;28;20300;-72
2021/09/10 07:52:06;;;;;;;9.77;8.80;;;;;;;20.66;78.58;100598.91;5056619;28;20167;-73
2021/09/10 07:54:31;;;;;;;17.50;10.87;;;;;;;20.98;77.24;100602.97;5074008;28;20167;-72
2021/09/10 07:56:57;;;;;;;12.80;10.07;;;;;;;20.97;77.37;100595.84;5039262;28;20194;-74
2021/09/10 07:59:22;;;;;;;14.90;9.83;;;;;;;20.72;78.21;100602.84;5039707;28;20191;-74
2021/09/10 08:01:47;;;;;;;13.53;9.00;;;;;;;21.05;77.68;100610.34;5040027;28;20171;-73
2021/09/10 08:04:13;;;;;;;13.00;9.20;;;;;;;20.90;78.79;100611.88;5041196;28;20218;-76
2021/09/10 08:06:38;;;;;;;12.90;10.10;;;;;;;21.24;76.61;100617.53;5056411;28;20210;-73
2021/09/10 08:09:04;;;;;;;12.77;9.27;;;;;;;21.38;75.96;100611.53;5055922;28;20245;-73
2021/09/10 08:11:30;;;;;;;12.73;9.10;;;;;;;21.48;75.44;100612.31;5055888;28;20175;-73
2021/09/10 08:13:56;;;;;;;9.73;8.03;;;;;;;21.45;75.69;100601.75;5073599;28;20668;-73
2021/09/10 08:16:22;;;;;;;13.50;10.40;;;;;;;21.06;78.25;100603.06;5055958;28;20163;-71
2021/09/10 08:18:47;;;;;;;13.47;10.13;;;;;;;21.37;77.23;100612.56;5073456;28;20213;-72
2021/09/10 08:21:12;;;;;;;15.57;10.30;;;;;;;20.52;79.94;100613.81;5055921;28;20178;-74
2021/09/10 08:23:37;;;;;;;17.97;10.07;;;;;;;20.45;79.90;100607.31;5039065;28;20195;-75
2021/09/10 08:26:03;;;;;;;11.87;9.87;;;;;;;20.87;79.21;100612.19;5073794;28;20174;-73
2021/09/10 08:28:28;;;;;;;13.07;9.60;;;;;;;20.75;80.20;100606.13;5039366;28;20194;-74
2021/09/10 08:30:53;;;;;;;11.33;8.90;;;;;;;21.05;78.54;100609.50;5073713;28;20663;-72
2021/09/10 08:33:19;;;;;;;12.17;9.73;;;;;;;20.72;80.08;100619.13;5055919;28;20189;-73
2021/09/10 08:35:45;;;;;;;13.03;10.00;;;;;;;20.83;80.19;100617.06;5073339;28;20254;-73
2021/09/10 08:38:10;;;;;;;15.97;12.17;;;;;;;21.28;78.27;100618.06;5055341;28;20644;-72
2021/09/10 08:40:35;;;;;;;10.37;9.30;;;;;;;21.22;78.17;100616.81;5055544;28;20655;-71
2021/09/10 08:43:01;;;;;;;12.90;10.03;;;;;;;21.29;78.66;100612.50;5038536;28;20632;-73
2021/09/10 08:45:27;;;;;;;15.47;9.90;;;;;;;21.44;77.21;100613.63;5055425;28;20171;-74
2021/09/10 08:47:53;;;;;;;11.43;9.73;;;;;;;21.49;77.44;100614.00;5055745;28;20548;-73
2021/09/10 08:50:18;;;;;;;16.93;9.80;;;;;;;21.68;76.77;100607.56;5055443;28;20314;-73
2021/09/10 08:52:43;;;;;;;15.27;10.17;;;;;;;21.64;76.89;100605.31;5038531;28;20537;-73
2021/09/10 08:55:09;;;;;;;13.30;10.37;;;;;;;21.79;77.29;100611.88;5055397;28;20206;-73
2021/09/10 08:57:36;;;;;;;12.10;9.93;;;;;;;22.00;77.22;100615.09;5038555;28;20179;-74
2021/09/10 09:00:08;;;;;;;13.57;9.93;;;;;;;21.49;79.10;100616.72;5055317;28;20190;-74
2021/09/10 09:02:33;;;;;;;11.20;9.40;;;;;;;22.04;77.07;100615.66;5055828;28;20577;-76
2021/09/10 09:04:59;;;;;;;16.67;9.97;;;;;;;22.34;74.65;100619.75;5055623;28;20328;-73
2021/09/10 09:07:28;;;;;;;11.17;9.70;;;;;;;22.23;75.78;100617.28;5037597;28;20183;-74
2021/09/10 09:09:57;;;;;;;11.07;9.57;;;;;;;22.51;74.32;100624.22;5038615;28;20191;-74
2021/09/10 09:12:29;;;;;;;11.97;9.57;;;;;;;22.61;73.80;100619.50;5055387;28;20167;-75
2021/09/10 09:14:58;;;;;;;12.63;9.57;;;;;;;23.06;72.29;100621.06;5056356;28;20577;-76
2021/09/10 09:17:37;;;;;;;12.13;8.60;;;;;;;23.09;71.61;100620.72;5073884;28;20193;-74
2021/09/10 09:20:13;;;;;;;11.47;9.27;;;;;;;22.91;72.85;100607.22;5056869;28;20194;-75
2021/09/10 09:23:04;;;;;;;16.17;10.73;;;;;;;23.69;69.58;100609.53;5074214;28;20636;-72
2021/09/10 09:25:34;;;;;;;12.90;9.63;;;;;;;24.12;68.14;100615.63;5039013;28;20541;-73
2021/09/10 09:28:18;;;;;;;17.47;9.73;;;;;;;23.72;68.99;100621.97;5038005;28;20684;-73
2021/09/10 09:30:44;;;;;;;13.63;9.20;;;;;;;24.14;67.36;100627.19;5054935;28;20714;-73
2021/09/10 09:33:17;;;;;;;15.63;8.43;;;;;;;23.25;71.69;100625.34;5055006;28;20171;-72
2021/09/10 09:35:43;;;;;;;12.73;8.97;;;;;;;23.44;71.13;100637.78;5055888;28;20679;-73
2021/09/10 09:38:19;;;;;;;11.13;8.30;;;;;;;23.88;69.84;100616.53;5054706;28;20256;-73
2021/09/10 09:40:47;;;;;;;14.30;9.50;;;;;;;23.15;72.00;100630.09;5054687;28;20171;-73
2021/09/10 09:43:18;;;;;;;13.20;8.57;;;;;;;23.53;70.71;100623.16;5054258;28;20195;-73
2021/09/10 09:45:45;;;;;;;10.77;9.30;;;;;;;23.14;71.89;100625.66;5054580;28;20159;-72
2021/09/10 09:48:12;;;;;;;17.13;9.57;;;;;;;23.66;70.81;100623.50;5054595;28;20168;-74
2021/09/10 09:50:39;;;;;;;12.07;9.70;;;;;;;23.14;72.61;100623.78;5055200;28;20173;-72
2021/09/10 09:53:05;;;;;;;10.47;9.37;;;;;;;23.54;72.51;100625.69;5054530;28;20213;-73
2021/09/10 09:55:30;;;;;;;16.40;9.53;;;;;;;23.54;73.35;100613.97;5054446;28;20254;-72
2021/09/10 09:57:55;;;;;;;11.00;8.40;;;;;;;24.31;70.38;100624.28;5054669;28;20253;-74
2021/09/10 10:00:21;;;;;;;13.17;8.70;;;;;;;24.30;71.76;100616.28;5072460;28;20230;-71
2021/09/10 10:02:46;;;;;;;13.63;9.30;;;;;;;24.77;70.40;100620.88;5037901;28;20187;-72
2021/09/10 10:05:16;;;;;;;13.53;8.80;;;;;;;24.26;71.48;100626.66;5072424;28;20175;-73
2021/09/10 10:07:41;;;;;;;10.33;9.03;;;;;;;24.28;71.73;100632.84;5054324;28;20179;-73
2021/09/10 10:10:07;;;;;;;11.20;9.30;;;;;;;24.78;71.16;100636.22;5072323;28;20194;-72
2021/09/10 10:12:33;;;;;;;14.70;8.57;;;;;;;25.45;68.52;100644.72;5037769;28;20268;-74
2021/09/10 10:15:27;;;;;;;12.85;9.95;;;;;;;24.36;71.13;100645.59;5037633;28;20175;-74
2021/09/10 10:17:54;;;;;;;11.07;9.27;;;;;;;24.66;70.31;100648.56;5054830;28;20640;-73
2021/09/10 10:20:44;;;;;;;14.30;10.87;;;;;;;24.93;70.14;100657.13;5041307;28;20293;-73
2021/09/10 10:23:43;;;;;;;11.37;9.80;;;;;;;24.83;71.59;100661.09;5057953;28;20683;-71
2021/09/10 10:26:31;;;;;;;10.60;9.33;;;;;;;25.67;67.92;100665.78;5076293;28;20258;-72
2021/09/10 10:29:07;;;;;;;10.57;8.93;;;;;;;25.30;68.54;100668.41;5058106;28;20270;-72
2021/09/10 10:31:59;;;;;;;13.30;9.33;;;;;;;25.59;68.20;100665.78;5041212;28;20594;-74
2021/09/10 10:34:25;;;;;;;10.40;9.00;;;;;;;26.19;66.09;100659.47;5058139;28;20182;-73
2021/09/10 10:36:51;;;;;;;11.03;9.63;;;;;;;26.39;64.93;100666.16;5059551;28;20521;-72
2021/09/10 10:39:20;;;;;;;11.60;8.90;;;;;;;26.00;67.05;100663.56;5041052;28;20197;-73
2021/09/10 10:41:50;;;;;;;12.30;9.10;;;;;;;26.52;63.76;100665.47;5058398;28;20171;-73
2021/09/10 10:44:33;;;;;;;10.13;9.13;;;;;;;26.59;63.75;100668.31;5042084;28;20244;-72
2021/09/10 10:47:16;;;;;;;11.37;8.50;;;;;;;26.33;64.78;100661.41;5075842;28;20178;-73
2021/09/10 10:49:43;;;;;;;12.47;9.23;;;;;;;26.45;64.68;100659.91;5041079;28;20191;-73
2021/09/10 10:52:29;;;;;;;10.23;8.77;;;;;;;26.68;64.02;100662.53;5059386;28;20227;-72
2021/09/10 10:55:30;;;;;;;10.60;9.20;;;;;;;26.41;66.45;100658.59;5041088;28;20202;-71
2021/09/10 10:58:19;;;;;;;16.90;9.23;;;;;;;28.69;58.25;100660.53;5041258;28;20583;-74
2021/09/10 11:01:04;;;;;;;15.00;9.33;;;;;;;28.23;58.90;100644.56;5057970;28;20517;-73
2021/09/10 11:03:31;;;;;;;10.27;8.70;;;;;;;29.52;56.37;100653.06;5057239;28;20305;-74
2021/09/10 11:05:57;;;;;;;10.33;7.73;;;;;;;28.82;57.15;100646.84;5057812;28;20167;-74
2021/09/10 11:08:42;;;;;;;9.77;8.10;;;;;;;30.17;54.34;100652.25;5075722;28;20193;-72
2021/09/10 11:11:07;;;;;;;10.27;8.25;;;;;;;31.39;50.76;100651.44;5041879;28;20228;-72
2021/09/10 11:13:33;;;;;;;10.13;7.47;;;;;;;31.92;50.70;100651.06;5075219;28;20538;-72
2021/09/10 11:15:58;;;;;;;11.57;8.10;;;;;;;33.25;47.64;100651.34;5057681;28;20179;-72
2021/09/10 11:18:25;;;;;;;11.52;8.30;;;;;;;30.92;52.04;100652.72;5058505;28;20198;-71